SSEC Globe Logo

Space Science and Engineering Center

Regional Terminal Forecasts

KMSN 171122Z 1712/1812 30008G15KT P6SM SCT250 FM171300
     33007KT P6SM FEW250 FM172200 VRB02KT P6SM SKC=
KMKE 171122Z 1712/1818 31012G19KT P6SM FEW250 FM171300
     32011KT P6SM FEW250 FM171700 34009KT P6SM FEW250
     FM172300 32006KT P6SM FEW250 FM180300 VRB04KT P6SM SKC
     FM181300 20005KT P6SM FEW240=
TAF KGRB 171125Z 1712/1812 31010G16KT P6SM SCT250 FM171600
     32009KT P6SM SKC FM180000 00000KT P6SM SKC=
KAUW 171125Z 1712/1812 32007G15KT P6SM BKN250 FM171600
     32007KT P6SM SKC FM180000 00000KT P6SM SKC=
KEAU 171124Z 1712/1812 32005KT P6SM FEW150 FM172200 VRB03KT
     P6SM FEW150 FM180600 13003KT P6SM SKC=
KLSE 171131Z 1712/1812 33005KT P6SM FEW250 FM180100 12004KT
     P6SM SKC=
KDBQ 171120Z 1712/1812 32010KT P6SM FEW250 FM180000 VRB04KT
     P6SM SKC=
TAF KRFD 171120Z 1712/1812 31006KT P6SM FEW250 FM171600
     34010KT P6SM FEW250 FM172300 VRB03KT P6SM SKC=
KORD 171120Z 1712/1818 32007KT P6SM FEW250 FM171700 35010KT
     P6SM FEW250 FM180000 VRB03KT P6SM FEW250 FM181600
     18006KT P6SM FEW250=